createdAt,value
2022-12-28T00:00:02.096Z,31.99
2022-12-28T00:02:29.959Z,32.48
2022-12-28T00:04:57.871Z,32.40
2022-12-28T00:07:27.515Z,32.45
2022-12-28T00:09:55.406Z,32.52
2022-12-28T00:12:23.327Z,32.17
2022-12-28T00:14:51.399Z,32.25
2022-12-28T00:17:19.555Z,32.01
2022-12-28T00:19:47.519Z,32.05
2022-12-28T00:22:15.384Z,32.03
2022-12-28T00:24:44.656Z,32.25
2022-12-28T00:27:12.865Z,32.00
2022-12-28T00:29:40.806Z,32.18
2022-12-28T00:32:08.706Z,32.01
2022-12-28T00:34:36.626Z,32.24
2022-12-28T00:37:09.060Z,32.35
2022-12-28T00:39:39.259Z,32.53
2022-12-28T00:42:08.592Z,32.22
2022-12-28T00:44:36.504Z,32.12
2022-12-28T00:47:04.721Z,32.05
2022-12-28T00:49:32.637Z,31.98
2022-12-28T00:52:00.532Z,32.45
2022-12-28T00:54:29.200Z,32.18
2022-12-28T00:56:57.467Z,32.13
2022-12-28T00:59:26.696Z,32.29
2022-12-28T01:01:54.654Z,32.01
2022-12-28T01:04:22.916Z,32.63
2022-12-28T01:06:51.053Z,32.04
2022-12-28T01:09:18.929Z,32.11
2022-12-28T01:11:46.805Z,32.28
2022-12-28T01:14:14.702Z,32.26
2022-12-28T01:16:44.471Z,32.26
2022-12-28T01:19:12.408Z,32.30
2022-12-28T01:21:40.665Z,32.08
2022-12-28T01:24:09.292Z,32.46
2022-12-28T01:26:37.519Z,32.07
2022-12-28T01:29:05.427Z,32.24
2022-12-28T01:31:33.384Z,32.49
2022-12-28T01:34:03.153Z,32.35
2022-12-28T01:36:34.979Z,32.58
2022-12-28T01:39:04.511Z,32.51
2022-12-28T01:41:32.837Z,32.02
2022-12-28T01:44:38.084Z,32.14
2022-12-28T01:47:07.263Z,32.10
2022-12-28T01:49:38.015Z,32.25
2022-12-28T01:52:07.349Z,32.40
2022-12-28T01:54:36.657Z,32.00
2022-12-28T01:57:05.031Z,32.05
2022-12-28T01:59:34.132Z,32.08
2022-12-28T02:02:02.159Z,32.09
2022-12-28T02:04:30.350Z,32.05
2022-12-28T02:06:59.861Z,32.53
2022-12-28T02:09:30.492Z,32.02
2022-12-28T02:11:58.688Z,32.57
2022-12-28T02:14:26.585Z,32.52
2022-12-28T02:16:54.839Z,32.11
2022-12-28T02:19:25.802Z,32.60
2022-12-28T02:22:02.402Z,32.60
2022-12-28T02:25:11.465Z,32.63
2022-12-28T02:27:41.463Z,32.17
2022-12-28T02:30:13.817Z,32.51
2022-12-28T02:32:57.340Z,32.14
2022-12-28T02:35:30.011Z,32.59
2022-12-28T02:38:00.561Z,32.58
2022-12-28T02:40:30.544Z,32.17
2022-12-28T02:42:58.433Z,32.59
2022-12-28T02:45:55.874Z,32.48
2022-12-28T02:48:41.058Z,32.66
2022-12-28T02:51:19.933Z,32.33
2022-12-28T02:54:36.156Z,32.63
2022-12-28T02:57:07.889Z,32.50
2022-12-28T02:59:42.364Z,32.20
2022-12-28T03:02:18.672Z,32.44
2022-12-28T03:04:55.146Z,32.42
2022-12-28T03:07:43.928Z,32.28
2022-12-28T03:10:13.094Z,32.14
2022-12-28T03:12:43.967Z,32.65
2022-12-28T03:15:14.275Z,32.05
2022-12-28T03:18:01.441Z,32.48
2022-12-28T03:20:48.539Z,32.52
2022-12-28T03:23:35.732Z,32.43
2022-12-28T03:26:21.633Z,32.20
2022-12-28T03:29:07.000Z,32.62
2022-12-28T03:31:34.892Z,32.61
2022-12-28T03:34:07.688Z,32.72
2022-12-28T03:36:41.376Z,32.66
2022-12-28T03:39:11.859Z,32.33
2022-12-28T03:41:40.474Z,32.48
2022-12-28T03:44:09.238Z,32.32
2022-12-28T03:46:39.662Z,32.63
2022-12-28T03:49:09.650Z,32.10
2022-12-28T03:51:37.535Z,32.66
2022-12-28T03:54:05.511Z,32.11
2022-12-28T03:56:33.679Z,32.65
2022-12-28T03:59:01.564Z,32.70
2022-12-28T04:01:29.561Z,32.12
2022-12-28T04:03:57.546Z,32.52
2022-12-28T04:06:27.134Z,32.41
2022-12-28T04:08:55.045Z,32.51
2022-12-28T04:11:22.945Z,32.16
2022-12-28T04:13:50.841Z,32.31
2022-12-28T04:16:19.165Z,32.18
2022-12-28T04:18:47.384Z,32.44
2022-12-28T04:21:15.763Z,32.36
2022-12-28T04:23:45.308Z,32.25
2022-12-28T04:26:13.956Z,32.23
2022-12-28T04:28:41.907Z,32.47
2022-12-28T04:31:10.400Z,32.19
2022-12-28T04:33:38.623Z,32.36
2022-12-28T04:36:07.750Z,32.54
2022-12-28T04:38:37.071Z,32.53
2022-12-28T04:41:07.321Z,32.67
2022-12-28T04:43:35.228Z,32.26
2022-12-28T04:46:04.384Z,32.29
2022-12-28T04:48:32.357Z,32.36
2022-12-28T04:51:00.252Z,32.19
2022-12-28T04:53:28.182Z,32.24
2022-12-28T04:55:58.393Z,32.08
2022-12-28T04:58:27.728Z,32.41
2022-12-28T05:00:55.720Z,32.73
2022-12-28T05:03:23.624Z,32.18
2022-12-28T05:05:51.824Z,32.21
2022-12-28T05:08:19.712Z,32.33
2022-12-28T05:10:47.579Z,32.29
2022-12-28T05:13:15.512Z,32.48
2022-12-28T05:15:45.081Z,32.40
2022-12-28T05:18:12.960Z,32.22
2022-12-28T05:20:41.172Z,32.82
2022-12-28T05:23:09.016Z,32.71
2022-12-28T05:25:37.165Z,32.51
2022-12-28T05:28:05.459Z,32.37
2022-12-28T05:30:33.327Z,32.30
2022-12-28T05:33:02.643Z,32.22
2022-12-28T05:35:30.557Z,32.47
2022-12-28T05:37:58.425Z,32.75
2022-12-28T05:40:26.293Z,32.13
2022-12-28T05:42:54.224Z,32.47
2022-12-28T05:45:22.103Z,32.65
2022-12-28T05:47:50.263Z,32.72
2022-12-28T05:50:19.572Z,32.58
2022-12-28T05:52:47.459Z,32.35
2022-12-28T05:55:15.375Z,32.54
2022-12-28T05:57:43.688Z,32.28
2022-12-28T06:00:12.607Z,32.60
2022-12-28T06:02:40.745Z,32.83
2022-12-28T06:05:09.748Z,32.33
2022-12-28T06:07:39.328Z,32.28
2022-12-28T06:10:08.373Z,32.46
2022-12-28T06:12:36.280Z,32.26
2022-12-28T06:15:04.417Z,32.29
2022-12-28T06:17:32.310Z,32.20
2022-12-28T06:20:00.198Z,32.35
2022-12-28T06:22:28.869Z,32.25
2022-12-28T06:24:58.127Z,32.68
2022-12-28T06:27:26.307Z,32.75
2022-12-28T06:29:54.245Z,32.30
2022-12-28T06:32:22.128Z,32.51
2022-12-28T06:34:50.165Z,32.45
2022-12-28T06:37:18.343Z,32.65
2022-12-28T06:39:46.199Z,32.33
2022-12-28T06:42:15.480Z,32.50
2022-12-28T06:44:44.815Z,32.62
2022-12-28T06:47:13.327Z,32.45
2022-12-28T06:49:41.254Z,32.32
2022-12-28T06:52:09.151Z,32.40
2022-12-28T06:54:37.042Z,32.68
2022-12-28T06:57:05.268Z,32.23
2022-12-28T06:59:35.402Z,32.35
2022-12-28T07:02:03.493Z,32.38
2022-12-28T07:04:31.542Z,32.64
2022-12-28T07:06:59.769Z,32.27
2022-12-28T07:09:27.645Z,32.64
2022-12-28T07:11:55.567Z,32.82
2022-12-28T07:14:23.413Z,32.34
2022-12-28T07:16:52.658Z,32.92
2022-12-28T07:19:20.569Z,32.30
2022-12-28T07:21:50.235Z,32.63
2022-12-28T07:24:18.109Z,32.35
2022-12-28T07:26:46.273Z,32.38
2022-12-28T07:29:14.217Z,32.58
2022-12-28T07:31:45.730Z,32.26
2022-12-28T07:34:16.106Z,32.51
2022-12-28T07:36:44.219Z,32.26
2022-12-28T07:39:12.176Z,32.53
2022-12-28T07:41:40.101Z,32.33
2022-12-28T07:44:08.022Z,32.40
2022-12-28T07:46:38.032Z,32.77
2022-12-28T07:49:05.991Z,32.58
2022-12-28T07:51:36.027Z,32.87
2022-12-28T07:54:03.986Z,32.30
2022-12-28T07:59:00.492Z,32.64
2022-12-28T08:01:29.519Z,32.63
2022-12-28T08:03:58.811Z,32.62
2022-12-28T08:06:27.210Z,32.46
2022-12-28T08:08:58.965Z,32.83
2022-12-28T08:11:27.965Z,32.79
2022-12-28T08:13:56.125Z,32.76
2022-12-28T08:16:26.868Z,32.45
2022-12-28T08:18:54.905Z,32.50
2022-12-28T08:21:26.519Z,32.35
2022-12-28T08:23:54.416Z,32.70
2022-12-28T08:26:24.895Z,32.77
2022-12-28T08:28:55.022Z,32.44
2022-12-28T08:31:23.978Z,32.51
2022-12-28T08:33:51.938Z,32.38
2022-12-28T08:36:19.835Z,32.71
2022-12-28T08:38:47.714Z,32.62
2022-12-28T08:41:16.888Z,32.70
2022-12-28T08:43:46.343Z,32.73
2022-12-28T08:46:16.360Z,32.44
2022-12-28T08:48:44.548Z,32.94
2022-12-28T08:51:13.234Z,32.56
2022-12-28T08:53:41.228Z,32.39
2022-12-28T08:56:11.407Z,32.77
2022-12-28T08:58:39.407Z,32.61
2022-12-28T09:01:09.881Z,32.52
2022-12-28T09:03:38.360Z,32.82
2022-12-28T09:06:07.346Z,32.56
2022-12-28T09:08:35.256Z,32.54
2022-12-28T09:11:03.296Z,32.86
2022-12-28T09:13:31.216Z,32.99
2022-12-28T09:15:59.218Z,32.77
2022-12-28T09:18:28.557Z,32.68
2022-12-28T09:20:56.506Z,32.95
2022-12-28T09:23:24.480Z,32.82
2022-12-28T09:25:52.667Z,32.92
2022-12-28T09:28:20.577Z,32.51
2022-12-28T09:30:48.551Z,32.71
2022-12-28T09:33:46.111Z,32.62
2022-12-28T09:36:23.651Z,32.73
2022-12-28T09:38:51.618Z,32.68
2022-12-28T09:41:24.057Z,32.71
2022-12-28T09:43:52.510Z,32.58
2022-12-28T09:46:20.946Z,32.97
2022-12-28T09:48:49.912Z,32.46
2022-12-28T09:51:18.045Z,32.52
2022-12-28T09:53:47.360Z,32.53
2022-12-28T09:56:23.690Z,33.03
2022-12-28T09:58:51.646Z,32.86
2022-12-28T10:01:19.848Z,32.76
2022-12-28T10:03:47.882Z,32.76
2022-12-28T10:06:17.005Z,33.02
2022-12-28T10:08:49.210Z,32.98
2022-12-28T10:11:20.090Z,32.56
2022-12-28T10:13:56.275Z,32.75
2022-12-28T10:16:25.233Z,32.66
2022-12-28T10:18:53.225Z,32.79
2022-12-28T10:21:26.837Z,33.04
2022-12-28T10:26:49.423Z,33.11
2022-12-28T10:29:19.704Z,32.77
2022-12-28T10:31:58.625Z,33.04
2022-12-28T10:34:33.373Z,32.57
2022-12-28T10:37:05.917Z,33.03
2022-12-28T10:39:35.288Z,33.08
2022-12-28T10:42:03.773Z,32.56
2022-12-28T10:44:40.646Z,32.55
2022-12-28T10:47:17.750Z,32.86
2022-12-28T10:50:02.743Z,32.92
2022-12-28T10:52:37.476Z,32.98
2022-12-28T10:55:27.179Z,32.55
2022-12-28T10:58:27.934Z,32.94
2022-12-28T11:00:48.538Z,32.94
2022-12-28T11:03:20.420Z,32.91
2022-12-28T11:05:57.334Z,33.14
2022-12-28T11:08:25.542Z,32.50
2022-12-28T11:10:59.079Z,32.85
2022-12-28T11:13:27.539Z,32.70
2022-12-28T11:15:55.748Z,32.51
2022-12-28T11:18:23.712Z,32.86
2022-12-28T11:20:52.392Z,32.99
2022-12-28T11:23:21.404Z,32.86
2022-12-28T11:25:49.641Z,32.85
2022-12-28T11:28:20.047Z,32.71
2022-12-28T11:30:51.216Z,32.58
2022-12-28T11:33:27.373Z,32.88
2022-12-28T11:35:59.605Z,32.58
2022-12-28T11:38:40.969Z,32.58
2022-12-28T11:41:11.008Z,32.49
2022-12-28T11:43:50.209Z,32.91
2022-12-28T11:46:40.645Z,32.69
2022-12-28T11:49:38.290Z,33.04
2022-12-28T11:52:45.486Z,32.93
2022-12-28T11:55:51.038Z,32.65
2022-12-28T11:58:55.375Z,32.86
2022-12-28T12:01:51.741Z,32.83
2022-12-28T12:04:41.686Z,32.88
2022-12-28T12:07:32.151Z,33.09
2022-12-28T12:10:21.740Z,32.98
2022-12-28T12:12:53.323Z,32.92
2022-12-28T12:15:23.004Z,32.92
2022-12-28T12:17:54.651Z,33.22
2022-12-28T12:20:26.913Z,32.98
2022-12-28T12:22:57.922Z,32.75
2022-12-28T12:25:28.140Z,32.80
2022-12-28T12:27:57.578Z,32.83
2022-12-28T12:30:25.543Z,33.05
2022-12-28T12:32:55.554Z,32.86
2022-12-28T12:35:24.507Z,33.06
2022-12-28T12:37:55.703Z,33.08
2022-12-28T12:40:58.684Z,33.07
2022-12-28T12:43:30.398Z,33.17
2022-12-28T12:46:06.936Z,33.12
2022-12-28T12:48:41.743Z,33.14
2022-12-28T12:51:19.327Z,33.22
2022-12-28T12:53:54.025Z,33.15
2022-12-28T12:56:30.626Z,33.02
2022-12-28T12:59:04.139Z,32.97
2022-12-28T13:01:35.120Z,33.14
2022-12-28T13:04:08.062Z,32.91
2022-12-28T13:06:36.722Z,32.80
2022-12-28T13:09:06.473Z,32.99
2022-12-28T13:11:37.010Z,32.84
2022-12-28T13:14:05.050Z,32.73
2022-12-28T13:16:33.617Z,32.84
2022-12-28T13:19:02.463Z,33.04
2022-12-28T13:21:40.195Z,32.96
2022-12-28T13:24:22.892Z,33.21
2022-12-28T13:26:50.849Z,33.20
2022-12-28T13:29:20.070Z,32.80
2022-12-28T13:31:49.894Z,32.84
2022-12-28T13:34:19.388Z,33.21
2022-12-28T13:36:54.362Z,33.22
2022-12-28T13:39:22.494Z,32.81
2022-12-28T13:41:51.412Z,32.96
2022-12-28T13:44:50.691Z,33.19
2022-12-28T13:47:21.063Z,32.96
2022-12-28T13:49:55.490Z,32.87
2022-12-28T13:52:26.708Z,33.11
2022-12-28T13:54:55.844Z,32.85
2022-12-28T14:00:12.769Z,32.93
2022-12-28T14:02:41.451Z,32.84
2022-12-28T14:05:10.261Z,33.05
2022-12-28T14:07:39.971Z,33.02
2022-12-28T14:10:08.892Z,32.84
2022-12-28T14:12:36.857Z,32.99
2022-12-28T14:15:06.845Z,33.00
2022-12-28T14:17:35.134Z,33.01
2022-12-28T14:20:03.048Z,32.86
2022-12-28T14:22:31.986Z,32.97
2022-12-28T14:25:06.383Z,32.93
2022-12-28T14:27:36.701Z,32.81
2022-12-28T14:30:09.209Z,33.08
2022-12-28T14:32:42.529Z,32.91
2022-12-28T14:35:25.859Z,32.98
2022-12-28T14:37:55.425Z,32.90
2022-12-28T14:40:28.276Z,32.80
2022-12-28T14:42:56.336Z,33.30
2022-12-28T14:45:36.057Z,32.78
2022-12-28T14:48:25.770Z,32.79
2022-12-28T14:50:58.254Z,33.02
2022-12-28T14:53:26.259Z,33.07
2022-12-28T14:56:04.605Z,33.08
2022-12-28T14:58:33.959Z,32.80
2022-12-28T15:01:03.016Z,33.15
2022-12-28T15:03:31.080Z,33.02
2022-12-28T15:05:59.540Z,33.18
2022-12-28T15:08:28.381Z,33.32
2022-12-28T15:10:57.114Z,33.16
2022-12-28T15:13:26.705Z,32.90
2022-12-28T15:15:56.175Z,33.15
2022-12-28T15:18:24.215Z,33.03
2022-12-28T15:20:52.204Z,32.99
2022-12-28T15:23:20.816Z,32.93
2022-12-28T15:25:49.160Z,33.31
2022-12-28T15:28:17.215Z,32.74
2022-12-28T15:30:46.522Z,32.84
2022-12-28T15:33:14.411Z,32.78
2022-12-28T15:35:42.641Z,32.88
2022-12-28T15:38:10.521Z,33.03
2022-12-28T15:40:40.163Z,32.91
2022-12-28T15:43:08.125Z,32.85
2022-12-28T15:45:36.010Z,33.22
2022-12-28T15:48:06.250Z,33.12
2022-12-28T15:50:34.229Z,32.75
2022-12-28T15:53:02.113Z,32.77
2022-12-28T15:55:31.309Z,32.90
2022-12-28T15:57:59.194Z,33.15
2022-12-28T16:00:27.080Z,32.91
2022-12-28T16:02:55.403Z,33.13
2022-12-28T16:05:24.871Z,32.78
2022-12-28T16:07:53.164Z,33.00
2022-12-28T16:10:21.087Z,32.95
2022-12-28T16:12:49.032Z,33.24
2022-12-28T16:15:16.950Z,32.96
2022-12-28T16:17:53.327Z,32.85
2022-12-28T16:20:26.207Z,33.29
2022-12-28T16:22:54.702Z,33.18
2022-12-28T16:25:22.907Z,32.91
2022-12-28T16:27:50.837Z,32.98
2022-12-28T16:30:18.889Z,33.30
2022-12-28T16:32:47.988Z,32.92
2022-12-28T16:35:16.557Z,33.12
2022-12-28T16:37:46.378Z,32.75
2022-12-28T16:40:14.416Z,32.95
2022-12-28T16:42:45.843Z,32.83
2022-12-28T16:45:13.948Z,33.17
2022-12-28T16:47:44.838Z,32.89
2022-12-28T16:50:13.229Z,33.08
2022-12-28T16:52:41.136Z,33.22
2022-12-28T16:55:10.796Z,32.94
2022-12-28T16:57:38.964Z,32.72
2022-12-28T17:00:09.387Z,32.72
2022-12-28T17:02:37.457Z,32.88
2022-12-28T17:05:06.291Z,32.65
2022-12-28T17:07:34.576Z,32.78
2022-12-28T17:10:02.488Z,33.30
2022-12-28T17:12:31.910Z,33.23
2022-12-28T17:15:04.789Z,32.85
2022-12-28T17:17:35.325Z,32.95
2022-12-28T17:20:03.229Z,33.21
2022-12-28T17:22:31.225Z,32.60
2022-12-28T17:24:59.199Z,33.30
2022-12-28T17:27:27.590Z,32.96
2022-12-28T17:29:56.987Z,32.79
2022-12-28T17:32:24.939Z,32.97
2022-12-28T17:34:52.851Z,32.88
2022-12-28T17:37:21.045Z,32.69
2022-12-28T17:39:48.973Z,33.14
2022-12-28T17:42:16.872Z,32.74
2022-12-28T17:44:45.791Z,32.92
2022-12-28T17:47:15.476Z,32.78
2022-12-28T17:49:43.343Z,32.75
2022-12-28T17:52:13.465Z,32.73
2022-12-28T17:54:41.369Z,32.80
2022-12-28T17:57:09.886Z,33.01
2022-12-28T17:59:37.763Z,33.12
2022-12-28T18:02:10.079Z,32.67
2022-12-28T18:04:39.754Z,33.02
2022-12-28T18:07:07.990Z,32.97
2022-12-28T18:09:35.924Z,33.20
2022-12-28T18:12:03.902Z,33.20
2022-12-28T18:14:31.828Z,32.85
2022-12-28T18:17:00.093Z,32.78
2022-12-28T18:19:27.992Z,32.74
2022-12-28T18:21:57.483Z,32.98
2022-12-28T18:24:25.420Z,33.03
2022-12-28T18:26:53.609Z,33.12
2022-12-28T18:29:21.505Z,33.13
2022-12-28T18:31:49.413Z,32.76
2022-12-28T18:34:17.615Z,33.02
2022-12-28T18:36:45.473Z,33.13
2022-12-28T18:39:14.778Z,33.34
2022-12-28T18:41:42.660Z,33.20
2022-12-28T18:44:10.711Z,32.91
2022-12-28T18:46:38.997Z,33.07
2022-12-28T18:49:06.920Z,33.01
2022-12-28T18:51:34.809Z,33.28
2022-12-28T18:54:02.697Z,33.00
2022-12-28T18:56:32.277Z,33.07
2022-12-28T18:59:00.194Z,32.88
2022-12-28T19:04:16.951Z,32.83
2022-12-28T19:06:45.627Z,32.97
2022-12-28T19:09:13.585Z,33.12
2022-12-28T19:11:43.936Z,33.12
2022-12-28T19:14:12.569Z,33.38
2022-12-28T19:16:40.798Z,33.07
2022-12-28T19:19:08.773Z,33.19
2022-12-28T19:21:37.087Z,33.29
2022-12-28T19:24:06.837Z,32.97
2022-12-28T19:26:35.721Z,33.13
2022-12-28T19:29:05.238Z,32.78
2022-12-28T19:31:34.231Z,32.95
2022-12-28T19:34:02.146Z,33.38
2022-12-28T19:36:30.054Z,33.36
2022-12-28T19:38:58.098Z,33.16
2022-12-28T19:41:26.003Z,33.22
2022-12-28T19:43:53.974Z,33.14
2022-12-28T19:46:30.560Z,33.18
2022-12-28T19:48:59.878Z,33.16
2022-12-28T19:51:31.405Z,32.98
2022-12-28T19:54:00.128Z,33.22
2022-12-28T19:56:28.306Z,33.38
2022-12-28T19:59:03.125Z,33.19
2022-12-28T20:01:35.683Z,33.30
2022-12-28T20:04:10.512Z,33.02
2022-12-28T20:06:41.272Z,33.07
2022-12-28T20:09:09.196Z,33.19
2022-12-28T20:11:37.107Z,33.07
2022-12-28T20:14:05.068Z,33.47
2022-12-28T20:16:35.180Z,33.48
2022-12-28T20:19:06.538Z,33.21
2022-12-28T20:21:34.605Z,32.96
2022-12-28T20:24:02.587Z,33.13
2022-12-28T20:26:30.899Z,33.53
2022-12-28T20:28:59.217Z,32.98
2022-12-28T20:31:27.160Z,33.09
2022-12-28T20:33:56.557Z,33.09
2022-12-28T20:36:25.531Z,33.22
2022-12-28T20:38:54.224Z,33.00
2022-12-28T20:41:40.446Z,33.01
2022-12-28T20:44:09.270Z,33.25
2022-12-28T20:46:37.522Z,33.44
2022-12-28T20:49:07.140Z,33.08
2022-12-28T20:51:35.087Z,32.96
2022-12-28T20:54:03.110Z,33.26
2022-12-28T20:56:31.239Z,33.27
2022-12-28T20:59:00.160Z,33.30
2022-12-28T21:01:28.229Z,33.10
2022-12-28T21:03:56.303Z,33.49
2022-12-28T21:06:25.650Z,33.34
2022-12-28T21:08:53.538Z,33.49
2022-12-28T21:11:21.550Z,33.26
2022-12-28T21:13:49.445Z,33.02
2022-12-28T21:16:17.732Z,33.08
2022-12-28T21:18:45.847Z,33.48
2022-12-28T21:21:15.085Z,33.56
2022-12-28T21:23:44.346Z,33.21
2022-12-28T21:26:13.665Z,33.60
2022-12-28T21:28:41.607Z,33.67
2022-12-28T21:31:10.247Z,33.38
2022-12-28T21:33:38.571Z,33.35
2022-12-28T21:36:07.719Z,33.21
2022-12-28T21:38:37.509Z,33.33
2022-12-28T21:41:07.946Z,33.15
2022-12-28T21:43:35.898Z,33.16
2022-12-28T21:46:04.981Z,33.07
2022-12-28T21:48:33.052Z,33.47
2022-12-28T21:51:05.635Z,33.61
2022-12-28T21:53:33.790Z,33.41
2022-12-28T21:56:01.846Z,33.42
2022-12-28T21:58:31.120Z,33.62
2022-12-28T22:01:17.046Z,33.65
2022-12-28T22:04:02.297Z,33.23
2022-12-28T22:06:30.240Z,33.28
2022-12-28T22:09:15.669Z,33.33
2022-12-28T22:12:01.050Z,33.65
2022-12-28T22:14:30.307Z,33.54
2022-12-28T22:16:58.259Z,33.20
2022-12-28T22:19:26.458Z,33.26
2022-12-28T22:21:54.359Z,33.54
2022-12-28T22:24:22.267Z,33.24
2022-12-28T22:26:50.188Z,33.44
2022-12-28T22:29:18.349Z,33.29
2022-12-28T22:31:47.678Z,33.49
2022-12-28T22:34:15.622Z,33.24
2022-12-28T22:36:43.804Z,33.17
2022-12-28T22:39:11.709Z,33.43
2022-12-28T22:41:39.624Z,33.27
2022-12-28T22:44:07.478Z,33.57
2022-12-28T22:46:35.417Z,33.51
2022-12-28T22:49:04.796Z,33.19
2022-12-28T22:51:32.687Z,33.25
2022-12-28T22:54:00.585Z,33.64
2022-12-28T22:56:28.804Z,33.40
2022-12-28T22:58:56.729Z,33.69
2022-12-28T23:01:24.668Z,33.30
2022-12-28T23:03:52.612Z,33.42
2022-12-28T23:06:22.184Z,33.04
2022-12-28T23:08:50.066Z,33.63
2022-12-28T23:11:36.047Z,33.57
2022-12-28T23:14:18.244Z,33.71
2022-12-28T23:16:46.236Z,33.76
2022-12-28T23:19:31.716Z,33.59
2022-12-28T23:22:18.595Z,33.55
2022-12-28T23:25:04.194Z,33.43
2022-12-28T23:27:33.050Z,33.16
2022-12-28T23:30:01.003Z,33.27
2022-12-28T23:32:28.939Z,33.21
2022-12-28T23:34:56.826Z,33.69
2022-12-28T23:37:26.343Z,33.18
2022-12-28T23:39:54.190Z,33.43
2022-12-28T23:42:22.104Z,33.37
2022-12-28T23:44:49.972Z,33.67
2022-12-28T23:47:18.159Z,33.62
2022-12-28T23:49:46.092Z,33.33
2022-12-28T23:52:13.961Z,33.55
2022-12-28T23:54:43.231Z,33.40
2022-12-28T23:57:11.425Z,33.23
2022-12-28T23:59:39.310Z,33.33
